createdAt,value
2022-08-11T00:00:01.356Z,3.80
2022-08-11T00:03:11.640Z,3.50
2022-08-11T00:06:05.536Z,3.40
2022-08-11T00:08:43.475Z,3.70
2022-08-11T00:11:26.940Z,3.40
2022-08-11T00:14:24.618Z,3.70
2022-08-11T00:17:19.200Z,3.40
2022-08-11T00:20:17.233Z,3.10
2022-08-11T00:23:10.656Z,3.40
2022-08-11T00:25:52.546Z,3.50
2022-08-11T00:28:40.490Z,3.50
2022-08-11T00:31:39.690Z,3.00
2022-08-11T00:34:36.666Z,3.40
2022-08-11T00:37:32.506Z,3.50
2022-08-11T00:40:18.716Z,3.50
2022-08-11T00:43:20.507Z,3.60
2022-08-11T00:46:23.536Z,3.60
2022-08-11T00:49:21.085Z,3.40
2022-08-11T00:52:15.632Z,3.40
2022-08-11T00:55:07.811Z,3.30
2022-08-11T00:57:52.691Z,3.80
2022-08-11T01:00:40.466Z,3.20
2022-08-11T01:03:37.677Z,3.50
2022-08-11T01:06:55.490Z,3.70
2022-08-11T01:10:19.421Z,3.20
2022-08-11T01:13:40.958Z,3.70
2022-08-11T01:16:42.687Z,3.20
2022-08-11T01:20:46.043Z,3.60
2022-08-11T01:22:52.749Z,2.90
2022-08-11T01:26:08.645Z,2.80
2022-08-11T01:28:58.556Z,3.10
2022-08-11T01:32:00.520Z,3.40
2022-08-11T01:35:04.854Z,3.50
2022-08-11T01:38:18.219Z,3.20
2022-08-11T01:42:00.259Z,3.00
2022-08-11T01:45:03.740Z,3.10
2022-08-11T01:48:08.621Z,3.00
2022-08-11T01:51:09.595Z,3.50
2022-08-11T01:54:12.621Z,3.10
2022-08-11T01:57:08.813Z,3.40
2022-08-11T02:00:00.628Z,3.00
2022-08-11T02:02:56.556Z,3.10
2022-08-11T02:05:50.572Z,3.00
2022-08-11T02:08:50.694Z,2.90
2022-08-11T02:11:46.538Z,3.50
2022-08-11T02:14:41.676Z,3.10
2022-08-11T02:17:55.592Z,3.30
2022-08-11T02:20:58.111Z,3.50
2022-08-11T02:24:05.344Z,2.90
2022-08-11T02:27:12.669Z,3.20
2022-08-11T02:30:08.668Z,3.20
2022-08-11T02:33:18.927Z,3.20
2022-08-11T02:36:13.617Z,2.90
2022-08-11T02:39:10.607Z,3.50
2022-08-11T02:42:31.988Z,3.10
2022-08-11T02:45:47.157Z,3.30
2022-08-11T02:48:51.308Z,3.30
2022-08-11T02:51:43.654Z,3.10
2022-08-11T02:54:46.586Z,2.80
2022-08-11T02:57:48.805Z,3.10
2022-08-11T03:00:46.048Z,2.50
2022-08-11T03:03:40.394Z,2.90
2022-08-11T03:06:34.321Z,3.00
2022-08-11T03:09:16.067Z,2.90
2022-08-11T03:12:27.628Z,3.40
2022-08-11T03:15:30.759Z,3.40
2022-08-11T03:18:27.209Z,3.80
2022-08-11T03:22:01.577Z,3.30
2022-08-11T03:25:12.757Z,3.30
2022-08-11T03:28:07.703Z,3.00
2022-08-11T03:30:48.584Z,3.10
2022-08-11T03:34:05.631Z,3.60
2022-08-11T03:37:45.587Z,3.10
2022-08-11T03:40:59.792Z,3.40
2022-08-11T03:44:43.289Z,3.50
2022-08-11T03:47:57.730Z,2.80
2022-08-11T03:51:07.474Z,4.30
2022-08-11T03:54:01.533Z,2.90
2022-08-11T03:57:00.963Z,2.90
2022-08-11T03:59:48.594Z,3.00
2022-08-11T04:03:05.378Z,3.00
2022-08-11T04:06:27.901Z,3.10
2022-08-11T04:09:34.577Z,2.60
2022-08-11T04:12:49.408Z,3.10
2022-08-11T04:16:12.366Z,3.20
2022-08-11T04:19:05.402Z,3.30
2022-08-11T04:22:02.636Z,3.20
2022-08-11T04:24:50.485Z,3.20
2022-08-11T04:27:54.316Z,3.20
2022-08-11T04:34:02.515Z,3.50
2022-08-11T04:37:22.566Z,6.10
2022-08-11T04:40:44.326Z,3.30
2022-08-11T04:44:05.563Z,3.80
2022-08-11T04:47:03.442Z,3.40
2022-08-11T04:50:16.653Z,3.20
2022-08-11T04:53:22.272Z,2.90
2022-08-11T04:56:45.687Z,3.20
2022-08-11T05:00:03.735Z,3.20
2022-08-11T05:03:12.323Z,3.60
2022-08-11T05:06:21.467Z,3.50
2022-08-11T05:09:46.445Z,3.40
2022-08-11T05:12:55.577Z,3.70
2022-08-11T05:16:09.807Z,3.50
2022-08-11T05:19:20.676Z,3.30
2022-08-11T05:22:30.089Z,3.00
2022-08-11T05:26:43.310Z,3.40
2022-08-11T05:29:19.311Z,3.80
2022-08-11T05:32:31.480Z,3.40
2022-08-11T05:36:01.223Z,5.30
2022-08-11T05:38:46.782Z,3.40
2022-08-11T05:41:50.393Z,3.80
2022-08-11T05:45:01.445Z,3.10
2022-08-11T05:48:04.339Z,3.20
2022-08-11T05:51:00.733Z,3.20
2022-08-11T05:54:28.682Z,3.50
2022-08-11T05:57:48.589Z,3.70
2022-08-11T06:00:50.674Z,3.40
2022-08-11T06:03:58.536Z,3.20
2022-08-11T06:07:06.789Z,3.10
2022-08-11T06:09:57.964Z,3.30
2022-08-11T06:12:49.415Z,3.10
2022-08-11T06:15:41.513Z,3.60
2022-08-11T06:18:39.286Z,5.50
2022-08-11T06:21:20.824Z,4.40
2022-08-11T06:23:59.771Z,4.00
2022-08-11T06:26:55.150Z,3.70
2022-08-11T06:29:38.013Z,3.20
2022-08-11T06:32:20.225Z,3.10
2022-08-11T06:35:21.124Z,2.60
2022-08-11T06:37:59.126Z,2.50
2022-08-11T06:40:43.825Z,2.50
2022-08-11T06:43:33.180Z,3.00
2022-08-11T06:46:12.002Z,2.30
2022-08-11T06:49:02.892Z,2.10
2022-08-11T06:51:41.811Z,2.70
2022-08-11T06:54:17.012Z,2.50
2022-08-11T06:57:28.868Z,2.40
2022-08-11T07:00:29.688Z,2.40
2022-08-11T07:03:10.337Z,2.40
2022-08-11T07:05:54.125Z,2.00
2022-08-11T07:08:54.289Z,2.20
2022-08-11T07:12:13.513Z,2.10
2022-08-11T07:16:10.451Z,2.50
2022-08-11T07:19:06.596Z,2.10
2022-08-11T07:22:03.765Z,2.20
2022-08-11T07:25:02.466Z,2.00
2022-08-11T07:28:03.827Z,2.00
2022-08-11T07:30:41.530Z,1.70
2022-08-11T07:34:05.844Z,2.00
2022-08-11T07:36:07.242Z,1.90
2022-08-11T07:38:47.641Z,1.70
2022-08-11T07:41:22.052Z,2.10
2022-08-11T07:43:57.176Z,1.90
2022-08-11T07:46:45.002Z,1.60
2022-08-11T07:49:32.834Z,1.60
2022-08-11T07:52:31.091Z,1.80
2022-08-11T07:55:50.919Z,1.70
2022-08-11T07:58:45.179Z,1.50
2022-08-11T08:04:56.778Z,1.60
2022-08-11T08:07:44.514Z,1.60
2022-08-11T08:10:38.298Z,2.00
2022-08-11T08:13:29.041Z,1.70
2022-08-11T08:16:31.360Z,1.50
2022-08-11T08:19:02.289Z,1.70
2022-08-11T08:21:33.007Z,1.90
2022-08-11T08:24:05.601Z,1.70
2022-08-11T08:26:57.188Z,1.50
2022-08-11T08:32:22.466Z,1.60
2022-08-11T08:34:53.605Z,1.70
2022-08-11T08:37:45.420Z,1.70
2022-08-11T08:40:23.593Z,1.60
2022-08-11T08:43:00.384Z,1.90
2022-08-11T08:45:38.839Z,3.50
2022-08-11T08:51:58.627Z,1.80
2022-08-11T08:54:38.894Z,2.00
2022-08-11T08:57:12.432Z,1.50
2022-08-11T08:59:48.709Z,1.50
2022-08-11T09:02:39.404Z,1.70
2022-08-11T09:05:11.248Z,1.90
2022-08-11T09:07:43.764Z,1.60
2022-08-11T09:10:18.070Z,1.60
2022-08-11T09:12:49.838Z,1.70
2022-08-11T09:15:22.770Z,1.40
2022-08-11T09:18:20.025Z,1.50
2022-08-11T09:20:54.947Z,1.50
2022-08-11T09:27:02.924Z,1.60
2022-08-11T09:29:38.175Z,1.40
2022-08-11T09:32:11.994Z,1.60
2022-08-11T09:34:46.798Z,1.30
2022-08-11T09:37:54.095Z,1.30
2022-08-11T09:40:30.937Z,1.40
2022-08-11T09:43:22.836Z,1.20
2022-08-11T09:45:59.511Z,1.30
2022-08-11T09:48:33.863Z,1.40
2022-08-11T09:51:07.589Z,1.20
2022-08-11T09:53:42.024Z,1.40
2022-08-11T09:56:50.849Z,1.30
2022-08-11T09:59:24.374Z,1.40
2022-08-11T10:02:00.985Z,1.40
2022-08-11T10:04:43.281Z,1.20
2022-08-11T10:07:17.229Z,1.90
2022-08-11T10:10:23.205Z,1.60
2022-08-11T10:14:31.582Z,2.60
2022-08-11T10:16:15.071Z,1.20
2022-08-11T10:18:53.608Z,1.10
2022-08-11T10:21:35.052Z,7.10
2022-08-11T10:24:25.424Z,1.80
2022-08-11T10:27:00.301Z,1.60
2022-08-11T10:29:55.693Z,1.70
2022-08-11T10:32:57.283Z,1.20
2022-08-11T10:35:32.699Z,1.80
2022-08-11T10:38:06.849Z,1.20
2022-08-11T10:40:42.891Z,1.20
2022-08-11T10:43:59.843Z,1.50
2022-08-11T10:46:29.748Z,1.40
2022-08-11T10:49:02.841Z,1.20
2022-08-11T10:51:53.832Z,3.10
2022-08-11T10:54:42.809Z,1.70
2022-08-11T10:57:33.778Z,1.40
2022-08-11T11:00:06.725Z,1.40
2022-08-11T11:02:37.975Z,1.30
2022-08-11T11:05:31.365Z,1.10
2022-08-11T11:08:30.711Z,1.20
2022-08-11T11:11:03.666Z,1.00
2022-08-11T11:13:57.336Z,1.30
2022-08-11T11:16:43.338Z,1.20
2022-08-11T11:19:19.695Z,1.30
2022-08-11T11:21:53.583Z,1.20
2022-08-11T11:24:37.874Z,1.40
2022-08-11T11:27:23.351Z,1.10
2022-08-11T11:30:09.538Z,1.20
2022-08-11T11:33:21.959Z,1.30
2022-08-11T11:36:13.043Z,1.10
2022-08-11T11:38:44.675Z,1.20
2022-08-11T11:41:27.603Z,1.20
2022-08-11T11:44:01.460Z,1.90
2022-08-11T11:46:38.897Z,1.70
2022-08-11T11:49:15.852Z,1.40
2022-08-11T11:51:54.154Z,1.20
2022-08-11T11:54:28.466Z,1.10
2022-08-11T11:57:22.914Z,1.30
2022-08-11T12:00:12.510Z,1.20
2022-08-11T12:02:44.068Z,1.30
2022-08-11T12:05:15.200Z,2.20
2022-08-11T12:08:05.237Z,1.20
2022-08-11T12:11:21.252Z,1.30
2022-08-11T12:16:33.871Z,1.10
2022-08-11T12:19:10.921Z,1.20
2022-08-11T12:22:03.998Z,1.20
2022-08-11T12:24:54.393Z,1.00
2022-08-11T12:27:27.334Z,1.50
2022-08-11T12:30:06.364Z,2.30
2022-08-11T12:32:40.661Z,1.50
2022-08-11T12:35:13.047Z,1.00
2022-08-11T12:37:49.278Z,1.20
2022-08-11T12:41:03.507Z,1.30
2022-08-11T12:43:56.863Z,1.20
2022-08-11T12:46:33.538Z,1.10
2022-08-11T12:49:31.671Z,1.00
2022-08-11T12:52:15.768Z,1.20
2022-08-11T12:54:52.404Z,2.00
2022-08-11T12:58:06.756Z,2.00
2022-08-11T13:00:54.611Z,2.00
2022-08-11T13:03:43.780Z,1.50
2022-08-11T13:06:26.348Z,0.90
2022-08-11T13:09:01.515Z,1.20
2022-08-11T13:11:55.662Z,1.40
2022-08-11T13:14:31.580Z,1.40
2022-08-11T13:17:20.119Z,1.10
2022-08-11T13:19:52.357Z,1.00
2022-08-11T13:22:24.990Z,1.20
2022-08-11T13:24:57.029Z,1.00
2022-08-11T13:27:28.074Z,1.30
2022-08-11T13:30:12.606Z,1.20
2022-08-11T13:32:48.054Z,1.20
2022-08-11T13:35:20.454Z,1.50
2022-08-11T13:38:19.038Z,1.10
2022-08-11T13:40:55.826Z,1.30
2022-08-11T13:43:29.436Z,2.40
2022-08-11T13:46:23.237Z,1.70
2022-08-11T13:49:33.173Z,1.10
2022-08-11T13:52:24.152Z,1.40
2022-08-11T13:55:45.053Z,0.90
2022-08-11T13:59:05.987Z,1.10
2022-08-11T14:02:21.569Z,1.10
2022-08-11T14:05:27.253Z,2.20
2022-08-11T14:08:06.578Z,1.20
2022-08-11T14:12:19.989Z,1.20
2022-08-11T14:14:14.178Z,1.20
2022-08-11T14:16:52.996Z,1.30
2022-08-11T14:19:30.417Z,1.10
2022-08-11T14:22:12.277Z,1.10
2022-08-11T14:25:03.124Z,1.10
2022-08-11T14:28:30.424Z,1.30
2022-08-11T14:31:04.443Z,1.20
2022-08-11T14:33:58.872Z,1.10
2022-08-11T14:37:29.603Z,1.20
2022-08-11T14:40:35.930Z,1.10
2022-08-11T14:44:13.992Z,1.00
2022-08-11T14:47:23.021Z,1.10
2022-08-11T14:50:27.872Z,1.90
2022-08-11T14:53:20.296Z,4.80
2022-08-11T14:56:39.286Z,2.40
2022-08-11T14:59:45.131Z,1.70
2022-08-11T15:06:14.407Z,1.00
2022-08-11T15:09:17.284Z,1.60
2022-08-11T15:12:32.640Z,2.40
2022-08-11T15:16:05.632Z,1.40
2022-08-11T15:18:51.050Z,1.20
2022-08-11T15:21:39.450Z,1.10
2022-08-11T15:24:31.546Z,1.30
2022-08-11T15:27:43.757Z,4.70
2022-08-11T15:30:45.061Z,3.30
2022-08-11T15:33:58.436Z,1.70
2022-08-11T15:36:52.164Z,1.40
2022-08-11T15:40:31.300Z,6.80
2022-08-11T15:43:57.599Z,2.20
2022-08-11T15:47:04.634Z,1.40
2022-08-11T15:50:10.430Z,1.20
2022-08-11T15:52:55.693Z,1.40
2022-08-11T15:55:33.160Z,1.20
2022-08-11T15:58:35.163Z,1.00
2022-08-11T16:01:45.367Z,1.20
2022-08-11T16:04:27.872Z,2.80
2022-08-11T16:07:12.962Z,1.40
2022-08-11T16:10:09.449Z,1.10
2022-08-11T16:13:22.102Z,2.40
2022-08-11T16:16:16.275Z,1.80
2022-08-11T16:19:26.922Z,1.40
2022-08-11T16:22:01.992Z,2.20
2022-08-11T16:27:04.683Z,1.40
2022-08-11T16:27:26.603Z,5.60
2022-08-11T16:30:08.746Z,9.20
2022-08-11T16:32:54.088Z,3.50
2022-08-11T16:36:04.377Z,3.80
2022-08-11T16:38:50.355Z,5.50
2022-08-11T16:41:54.400Z,1.90
2022-08-11T16:44:53.414Z,1.80
2022-08-11T16:48:02.927Z,2.20
2022-08-11T16:50:57.349Z,2.50
2022-08-11T16:53:54.944Z,1.80
2022-08-11T16:56:52.950Z,1.60
2022-08-11T16:59:40.897Z,1.70
2022-08-11T17:02:52.330Z,11.50
2022-08-11T17:05:54.716Z,7.00
2022-08-11T17:12:13.479Z,4.50
2022-08-11T17:15:02.079Z,4.50
2022-08-11T17:17:40.607Z,3.50
2022-08-11T17:20:38.595Z,3.90
2022-08-11T17:23:32.091Z,2.00
2022-08-11T17:26:04.772Z,2.00
2022-08-11T17:28:38.028Z,2.40
2022-08-11T17:31:26.312Z,2.00
2022-08-11T17:34:15.803Z,1.60
2022-08-11T17:39:17.780Z,2.60
2022-08-11T17:42:38.012Z,6.10
2022-08-11T17:45:27.805Z,2.90
2022-08-11T17:48:29.193Z,2.40
2022-08-11T17:51:06.989Z,2.70
2022-08-11T17:54:18.067Z,2.20
2022-08-11T17:57:21.009Z,2.00
2022-08-11T17:59:57.449Z,1.70
2022-08-11T18:02:52.094Z,1.20
2022-08-11T18:05:27.353Z,1.40
2022-08-11T18:08:19.388Z,1.40
2022-08-11T18:11:07.843Z,1.80
2022-08-11T18:14:00.060Z,1.50
2022-08-11T18:16:48.858Z,2.60
2022-08-11T18:19:36.659Z,3.70
2022-08-11T18:22:39.620Z,2.20
2022-08-11T18:25:43.350Z,4.60
2022-08-11T18:28:36.145Z,2.80
2022-08-11T18:31:26.550Z,2.60
2022-08-11T18:34:26.001Z,3.00
2022-08-11T18:37:29.307Z,3.30
2022-08-11T18:40:47.610Z,2.70
2022-08-11T18:45:01.461Z,2.70
2022-08-11T18:55:27.634Z,1.90
2022-08-11T18:58:23.626Z,3.00
2022-08-11T19:06:32.467Z,3.00
2022-08-11T19:09:15.897Z,3.60
2022-08-11T19:12:19.449Z,2.90
2022-08-11T19:15:12.183Z,2.30
2022-08-11T19:18:22.156Z,2.60
2022-08-11T19:21:12.453Z,2.70
2022-08-11T19:24:09.246Z,1.70
2022-08-11T19:26:58.740Z,1.60
2022-08-11T19:30:04.690Z,2.20
2022-08-11T19:33:00.874Z,1.50
2022-08-11T19:35:52.661Z,1.90
2022-08-11T19:38:40.742Z,2.00
2022-08-11T19:41:56.530Z,1.50
2022-08-11T19:44:41.649Z,1.50
2022-08-11T19:47:31.909Z,1.70
2022-08-11T19:50:38.889Z,2.00
2022-08-11T19:53:32.214Z,1.90
2022-08-11T19:56:20.437Z,1.60
2022-08-11T19:59:10.330Z,1.60
2022-08-11T20:02:13.488Z,1.50
2022-08-11T20:05:02.551Z,1.70
2022-08-11T20:07:52.380Z,1.70
2022-08-11T20:10:41.235Z,1.70
2022-08-11T20:13:30.765Z,2.10
2022-08-11T20:16:21.038Z,2.00
2022-08-11T20:19:11.024Z,1.90
2022-08-11T20:22:05.961Z,2.00
2022-08-11T20:24:57.753Z,1.90
2022-08-11T20:27:51.263Z,1.70
2022-08-11T20:30:45.191Z,2.00
2022-08-11T20:33:34.437Z,3.50
2022-08-11T20:36:23.496Z,2.80
2022-08-11T20:39:13.152Z,2.90
2022-08-11T20:42:02.132Z,2.20
2022-08-11T20:45:02.950Z,2.30
2022-08-11T20:47:59.404Z,2.00
2022-08-11T20:50:50.588Z,2.30
2022-08-11T20:54:13.697Z,2.10
2022-08-11T20:57:12.693Z,2.40
2022-08-11T21:00:05.008Z,2.20
2022-08-11T21:03:36.081Z,2.00
2022-08-11T21:06:33.114Z,2.10
2022-08-11T21:09:25.064Z,1.80
2022-08-11T21:12:50.535Z,1.90
2022-08-11T21:16:02.838Z,1.50
2022-08-11T21:19:11.037Z,1.60
2022-08-11T21:22:03.960Z,1.60
2022-08-11T21:24:53.523Z,1.90
2022-08-11T21:27:45.189Z,1.60
2022-08-11T21:30:33.086Z,1.80
2022-08-11T21:33:22.338Z,1.80
2022-08-11T21:36:43.776Z,1.80
2022-08-11T21:39:41.107Z,1.60
2022-08-11T21:42:30.710Z,2.00
2022-08-11T21:48:09.120Z,1.80
2022-08-11T21:51:05.655Z,2.30
2022-08-11T21:53:54.638Z,2.00
2022-08-11T21:56:46.469Z,1.70
2022-08-11T21:59:41.646Z,1.80
2022-08-11T22:02:29.369Z,2.20
2022-08-11T22:05:17.320Z,2.00
2022-08-11T22:08:05.707Z,2.10
2022-08-11T22:10:53.734Z,2.40
2022-08-11T22:13:41.555Z,2.00
2022-08-11T22:16:49.336Z,2.40
2022-08-11T22:19:38.192Z,2.50
2022-08-11T22:22:27.398Z,2.50
2022-08-11T22:28:06.496Z,2.60
2022-08-11T22:30:54.405Z,2.60
2022-08-11T22:34:00.114Z,2.30
2022-08-11T22:36:54.277Z,2.10
2022-08-11T22:39:44.259Z,1.90
2022-08-11T22:42:33.445Z,2.00
2022-08-11T22:48:10.608Z,1.70
2022-08-11T22:50:59.549Z,2.10
2022-08-11T22:53:57.632Z,1.80
2022-08-11T22:56:48.797Z,2.10
2022-08-11T22:59:39.692Z,1.80
2022-08-11T23:02:28.169Z,1.90
2022-08-11T23:05:20.254Z,2.00
2022-08-11T23:08:08.938Z,1.80
2022-08-11T23:10:57.996Z,1.60
2022-08-11T23:13:48.000Z,2.20
2022-08-11T23:16:37.868Z,2.20
2022-08-11T23:22:43.743Z,2.10
2022-08-11T23:25:41.126Z,1.70
2022-08-11T23:28:33.255Z,1.90
2022-08-11T23:31:21.777Z,1.80
2022-08-11T23:34:41.540Z,1.90
2022-08-11T23:37:21.755Z,2.10
2022-08-11T23:40:10.333Z,2.20
2022-08-11T23:42:59.210Z,2.30
2022-08-11T23:45:46.818Z,1.90
2022-08-11T23:48:35.637Z,2.20
2022-08-11T23:51:25.177Z,2.20
2022-08-11T23:54:32.656Z,2.00
2022-08-11T23:57:24.749Z,2.00
